sensor_id;sensor_type;location;lat;lon;timestamp;P1;durP1;ratioP1;P2;durP2;ratioP2
1262;SDS011;62267;50.112;8.704;2023-12-22T00:00:02;8.73;;;1.93;;
1262;SDS011;62267;50.112;8.704;2023-12-22T00:02:30;1.50;;;1.40;;
1262;SDS011;62267;50.112;8.704;2023-12-22T00:04:57;6.07;;;2.23;;
1262;SDS011;62267;50.112;8.704;2023-12-22T00:07:24;2.93;;;1.90;;
1262;SDS011;62267;50.112;8.704;2023-12-22T00:09:53;3.00;;;1.57;;
1262;SDS011;62267;50.112;8.704;2023-12-22T00:12:20;3.30;;;1.83;;
1262;SDS011;62267;50.112;8.704;2023-12-22T00:14:48;1.67;;;1.57;;
1262;SDS011;62267;50.112;8.704;2023-12-22T00:17:15;2.60;;;1.73;;
1262;SDS011;62267;50.112;8.704;2023-12-22T00:19:43;3.60;;;1.60;;
1262;SDS011;62267;50.112;8.704;2023-12-22T00:22:10;3.27;;;1.80;;
1262;SDS011;62267;50.112;8.704;2023-12-22T00:24:38;1.40;;;1.30;;
1262;SDS011;62267;50.112;8.704;2023-12-22T00:27:06;4.63;;;1.50;;
1262;SDS011;62267;50.112;8.704;2023-12-22T00:29:34;1.53;;;1.43;;
1262;SDS011;62267;50.112;8.704;2023-12-22T00:32:03;2.60;;;1.40;;
1262;SDS011;62267;50.112;8.704;2023-12-22T00:34:31;2.23;;;1.40;;
1262;SDS011;62267;50.112;8.704;2023-12-22T00:36:59;2.90;;;1.40;;
1262;SDS011;62267;50.112;8.704;2023-12-22T00:39:27;1.37;;;1.27;;
1262;SDS011;62267;50.112;8.704;2023-12-22T00:41:54;1.50;;;1.37;;
1262;SDS011;62267;50.112;8.704;2023-12-22T00:44:22;1.63;;;1.50;;
1262;SDS011;62267;50.112;8.704;2023-12-22T00:46:52;1.33;;;1.23;;
1262;SDS011;62267;50.112;8.704;2023-12-22T00:49:19;2.20;;;1.50;;
1262;SDS011;62267;50.112;8.704;2023-12-22T00:51:49;2.63;;;2.40;;
1262;SDS011;62267;50.112;8.704;2023-12-22T00:54:16;3.00;;;2.33;;
1262;SDS011;62267;50.112;8.704;2023-12-22T00:56:44;1.47;;;1.37;;
1262;SDS011;62267;50.112;8.704;2023-12-22T00:59:11;1.80;;;1.40;;
1262;SDS011;62267;50.112;8.704;2023-12-22T01:01:39;2.20;;;1.33;;
1262;SDS011;62267;50.112;8.704;2023-12-22T01:04:06;1.90;;;1.57;;
1262;SDS011;62267;50.112;8.704;2023-12-22T01:06:38;3.83;;;1.97;;
1262;SDS011;62267;50.112;8.704;2023-12-22T01:09:06;1.73;;;1.40;;
1262;SDS011;62267;50.112;8.704;2023-12-22T01:11:33;1.70;;;1.50;;
1262;SDS011;62267;50.112;8.704;2023-12-22T01:14:01;1.37;;;1.27;;
1262;SDS011;62267;50.112;8.704;2023-12-22T01:16:28;1.93;;;1.37;;
1262;SDS011;62267;50.112;8.704;2023-12-22T01:18:56;1.60;;;1.50;;
1262;SDS011;62267;50.112;8.704;2023-12-22T01:21:23;1.97;;;1.60;;
1262;SDS011;62267;50.112;8.704;2023-12-22T01:23:51;2.07;;;1.60;;
1262;SDS011;62267;50.112;8.704;2023-12-22T01:26:18;1.63;;;1.47;;
1262;SDS011;62267;50.112;8.704;2023-12-22T01:28:45;1.70;;;1.60;;
1262;SDS011;62267;50.112;8.704;2023-12-22T01:31:13;1.80;;;1.20;;
1262;SDS011;62267;50.112;8.704;2023-12-22T01:33:40;1.87;;;1.20;;
1262;SDS011;62267;50.112;8.704;2023-12-22T01:36:08;1.43;;;1.30;;
1262;SDS011;62267;50.112;8.704;2023-12-22T01:38:35;1.47;;;1.10;;
1262;SDS011;62267;50.112;8.704;2023-12-22T01:41:03;2.07;;;1.27;;
1262;SDS011;62267;50.112;8.704;2023-12-22T01:43:33;1.20;;;1.10;;
1262;SDS011;62267;50.112;8.704;2023-12-22T01:46:00;1.30;;;1.20;;
1262;SDS011;62267;50.112;8.704;2023-12-22T01:48:28;1.37;;;1.13;;
1262;SDS011;62267;50.112;8.704;2023-12-22T01:50:57;1.17;;;1.10;;
1262;SDS011;62267;50.112;8.704;2023-12-22T01:53:25;1.00;;;1.00;;
1262;SDS011;62267;50.112;8.704;2023-12-22T01:55:54;1.10;;;1.00;;
1262;SDS011;62267;50.112;8.704;2023-12-22T01:58:23;1.03;;;1.03;;
1262;SDS011;62267;50.112;8.704;2023-12-22T02:00:52;1.10;;;1.00;;
1262;SDS011;62267;50.112;8.704;2023-12-22T02:03:19;1.47;;;1.37;;
1262;SDS011;62267;50.112;8.704;2023-12-22T02:05:48;1.40;;;1.30;;
1262;SDS011;62267;50.112;8.704;2023-12-22T02:08:17;1.63;;;1.17;;
1262;SDS011;62267;50.112;8.704;2023-12-22T02:10:45;1.27;;;1.17;;
1262;SDS011;62267;50.112;8.704;2023-12-22T02:13:13;0.90;;;0.90;;
1262;SDS011;62267;50.112;8.704;2023-12-22T02:15:40;2.73;;;1.30;;
1262;SDS011;62267;50.112;8.704;2023-12-22T02:18:09;1.10;;;1.00;;
1262;SDS011;62267;50.112;8.704;2023-12-22T02:20:38;4.00;;;1.07;;
1262;SDS011;62267;50.112;8.704;2023-12-22T02:23:05;1.17;;;1.00;;
1262;SDS011;62267;50.112;8.704;2023-12-22T02:25:33;0.90;;;0.90;;
1262;SDS011;62267;50.112;8.704;2023-12-22T02:28:05;1.00;;;1.00;;
1262;SDS011;62267;50.112;8.704;2023-12-22T02:33:12;2.50;;;1.20;;
1262;SDS011;62267;50.112;8.704;2023-12-22T02:35:42;0.90;;;0.90;;
1262;SDS011;62267;50.112;8.704;2023-12-22T02:38:12;1.13;;;1.00;;
1262;SDS011;62267;50.112;8.704;2023-12-22T02:40:40;1.20;;;1.03;;
1262;SDS011;62267;50.112;8.704;2023-12-22T02:43:08;1.20;;;1.10;;
1262;SDS011;62267;50.112;8.704;2023-12-22T02:45:35;1.30;;;1.10;;
1262;SDS011;62267;50.112;8.704;2023-12-22T02:48:05;1.00;;;1.00;;
1262;SDS011;62267;50.112;8.704;2023-12-22T02:50:32;1.13;;;1.03;;
1262;SDS011;62267;50.112;8.704;2023-12-22T02:53:00;2.00;;;1.10;;
1262;SDS011;62267;50.112;8.704;2023-12-22T02:55:27;1.40;;;1.30;;
1262;SDS011;62267;50.112;8.704;2023-12-22T02:57:55;1.00;;;1.00;;
1262;SDS011;62267;50.112;8.704;2023-12-22T03:00:22;1.40;;;1.30;;
1262;SDS011;62267;50.112;8.704;2023-12-22T03:02:50;1.10;;;1.10;;
1262;SDS011;62267;50.112;8.704;2023-12-22T03:05:17;1.20;;;1.10;;
1262;SDS011;62267;50.112;8.704;2023-12-22T03:07:45;1.97;;;1.40;;
1262;SDS011;62267;50.112;8.704;2023-12-22T03:10:13;1.40;;;1.30;;
1262;SDS011;62267;50.112;8.704;2023-12-22T03:12:40;1.30;;;1.20;;
1262;SDS011;62267;50.112;8.704;2023-12-22T03:15:08;1.63;;;1.30;;
1262;SDS011;62267;50.112;8.704;2023-12-22T03:17:36;1.77;;;1.37;;
1262;SDS011;62267;50.112;8.704;2023-12-22T03:20:03;1.50;;;1.40;;
1262;SDS011;62267;50.112;8.704;2023-12-22T03:22:31;1.57;;;1.47;;
1262;SDS011;62267;50.112;8.704;2023-12-22T03:24:58;1.93;;;1.17;;
1262;SDS011;62267;50.112;8.704;2023-12-22T03:27:26;1.30;;;1.30;;
1262;SDS011;62267;50.112;8.704;2023-12-22T03:29:53;1.70;;;1.60;;
1262;SDS011;62267;50.112;8.704;2023-12-22T03:32:21;1.77;;;1.50;;
1262;SDS011;62267;50.112;8.704;2023-12-22T03:34:49;1.53;;;1.10;;
1262;SDS011;62267;50.112;8.704;2023-12-22T03:37:16;1.40;;;1.30;;
1262;SDS011;62267;50.112;8.704;2023-12-22T03:39:44;1.50;;;1.40;;
1262;SDS011;62267;50.112;8.704;2023-12-22T03:42:11;1.40;;;1.30;;
1262;SDS011;62267;50.112;8.704;2023-12-22T03:44:39;1.40;;;1.30;;
1262;SDS011;62267;50.112;8.704;2023-12-22T03:47:06;2.90;;;1.50;;
1262;SDS011;62267;50.112;8.704;2023-12-22T03:49:35;1.77;;;1.60;;
1262;SDS011;62267;50.112;8.704;2023-12-22T03:52:02;3.63;;;2.80;;
1262;SDS011;62267;50.112;8.704;2023-12-22T03:54:30;1.60;;;1.50;;
1262;SDS011;62267;50.112;8.704;2023-12-22T03:56:57;3.10;;;2.80;;
1262;SDS011;62267;50.112;8.704;2023-12-22T03:59:24;2.80;;;1.87;;
1262;SDS011;62267;50.112;8.704;2023-12-22T04:01:52;2.03;;;1.77;;
1262;SDS011;62267;50.112;8.704;2023-12-22T04:04:22;3.17;;;2.13;;
1262;SDS011;62267;50.112;8.704;2023-12-22T04:06:49;2.10;;;1.77;;
1262;SDS011;62267;50.112;8.704;2023-12-22T04:09:17;2.10;;;2.00;;
1262;SDS011;62267;50.112;8.704;2023-12-22T04:11:45;3.23;;;2.13;;
1262;SDS011;62267;50.112;8.704;2023-12-22T04:14:12;1.87;;;1.77;;
1262;SDS011;62267;50.112;8.704;2023-12-22T04:16:41;2.00;;;1.90;;
1262;SDS011;62267;50.112;8.704;2023-12-22T04:19:09;4.20;;;1.90;;
1262;SDS011;62267;50.112;8.704;2023-12-22T04:21:38;1.80;;;1.70;;
1262;SDS011;62267;50.112;8.704;2023-12-22T04:24:05;1.90;;;1.80;;
1262;SDS011;62267;50.112;8.704;2023-12-22T04:26:33;4.80;;;2.53;;
1262;SDS011;62267;50.112;8.704;2023-12-22T04:29:00;2.10;;;1.97;;
1262;SDS011;62267;50.112;8.704;2023-12-22T04:31:28;2.80;;;2.07;;
1262;SDS011;62267;50.112;8.704;2023-12-22T04:33:55;4.40;;;2.67;;
1262;SDS011;62267;50.112;8.704;2023-12-22T04:36:23;3.83;;;2.70;;
1262;SDS011;62267;50.112;8.704;2023-12-22T04:38:50;5.30;;;2.60;;
1262;SDS011;62267;50.112;8.704;2023-12-22T04:41:17;3.33;;;2.63;;
1262;SDS011;62267;50.112;8.704;2023-12-22T04:43:44;9.33;;;3.87;;
1262;SDS011;62267;50.112;8.704;2023-12-22T04:46:11;4.60;;;2.87;;
1262;SDS011;62267;50.112;8.704;2023-12-22T04:48:39;6.83;;;2.93;;
1262;SDS011;62267;50.112;8.704;2023-12-22T04:51:07;5.63;;;2.97;;
1262;SDS011;62267;50.112;8.704;2023-12-22T04:53:34;5.60;;;2.63;;
1262;SDS011;62267;50.112;8.704;2023-12-22T04:56:01;4.93;;;3.40;;
1262;SDS011;62267;50.112;8.704;2023-12-22T04:58:29;9.30;;;3.30;;
1262;SDS011;62267;50.112;8.704;2023-12-22T05:00:56;5.60;;;3.10;;
1262;SDS011;62267;50.112;8.704;2023-12-22T05:03:23;8.10;;;3.90;;
1262;SDS011;62267;50.112;8.704;2023-12-22T05:05:51;5.13;;;3.40;;
1262;SDS011;62267;50.112;8.704;2023-12-22T05:08:19;8.83;;;3.40;;
1262;SDS011;62267;50.112;8.704;2023-12-22T05:10:46;7.67;;;3.57;;
1262;SDS011;62267;50.112;8.704;2023-12-22T05:13:13;9.10;;;3.10;;
1262;SDS011;62267;50.112;8.704;2023-12-22T05:15:40;6.77;;;2.90;;
1262;SDS011;62267;50.112;8.704;2023-12-22T05:18:08;8.50;;;3.80;;
1262;SDS011;62267;50.112;8.704;2023-12-22T05:20:38;10.60;;;3.30;;
1262;SDS011;62267;50.112;8.704;2023-12-22T05:23:05;12.07;;;3.07;;
1262;SDS011;62267;50.112;8.704;2023-12-22T05:25:33;9.93;;;2.90;;
1262;SDS011;62267;50.112;8.704;2023-12-22T05:28:01;5.37;;;2.83;;
1262;SDS011;62267;50.112;8.704;2023-12-22T05:30:28;6.67;;;2.87;;
1262;SDS011;62267;50.112;8.704;2023-12-22T05:32:56;6.83;;;3.00;;
1262;SDS011;62267;50.112;8.704;2023-12-22T05:35:25;7.80;;;2.53;;
1262;SDS011;62267;50.112;8.704;2023-12-22T05:37:52;3.93;;;2.10;;
1262;SDS011;62267;50.112;8.704;2023-12-22T05:40:20;5.70;;;2.30;;
1262;SDS011;62267;50.112;8.704;2023-12-22T05:42:47;6.93;;;4.80;;
1262;SDS011;62267;50.112;8.704;2023-12-22T05:45:14;5.00;;;2.40;;
1262;SDS011;62267;50.112;8.704;2023-12-22T05:47:41;7.47;;;3.10;;
1262;SDS011;62267;50.112;8.704;2023-12-22T05:50:09;6.03;;;2.83;;
1262;SDS011;62267;50.112;8.704;2023-12-22T05:52:37;5.63;;;2.70;;
1262;SDS011;62267;50.112;8.704;2023-12-22T05:55:05;4.37;;;2.70;;
1262;SDS011;62267;50.112;8.704;2023-12-22T05:57:33;7.47;;;3.00;;
1262;SDS011;62267;50.112;8.704;2023-12-22T06:00:00;4.27;;;2.70;;
1262;SDS011;62267;50.112;8.704;2023-12-22T06:02:30;5.30;;;2.77;;
1262;SDS011;62267;50.112;8.704;2023-12-22T06:04:57;10.40;;;2.80;;
1262;SDS011;62267;50.112;8.704;2023-12-22T06:07:25;8.17;;;3.13;;
1262;SDS011;62267;50.112;8.704;2023-12-22T06:09:53;6.00;;;2.40;;
1262;SDS011;62267;50.112;8.704;2023-12-22T06:12:20;6.50;;;2.57;;
1262;SDS011;62267;50.112;8.704;2023-12-22T06:14:47;3.47;;;2.70;;
1262;SDS011;62267;50.112;8.704;2023-12-22T06:17:17;7.97;;;2.97;;
1262;SDS011;62267;50.112;8.704;2023-12-22T06:19:44;10.10;;;4.27;;
1262;SDS011;62267;50.112;8.704;2023-12-22T06:22:11;10.03;;;3.33;;
1262;SDS011;62267;50.112;8.704;2023-12-22T06:24:39;8.20;;;3.23;;
1262;SDS011;62267;50.112;8.704;2023-12-22T06:27:06;6.10;;;2.90;;
1262;SDS011;62267;50.112;8.704;2023-12-22T06:29:33;6.47;;;2.43;;
1262;SDS011;62267;50.112;8.704;2023-12-22T06:32:00;6.30;;;2.50;;
1262;SDS011;62267;50.112;8.704;2023-12-22T06:34:28;7.73;;;3.00;;
1262;SDS011;62267;50.112;8.704;2023-12-22T06:36:55;3.87;;;3.23;;
1262;SDS011;62267;50.112;8.704;2023-12-22T06:39:22;12.90;;;4.50;;
1262;SDS011;62267;50.112;8.704;2023-12-22T06:41:49;3.57;;;2.60;;
1262;SDS011;62267;50.112;8.704;2023-12-22T06:44:17;8.17;;;2.80;;
1262;SDS011;62267;50.112;8.704;2023-12-22T06:46:44;5.87;;;2.87;;
1262;SDS011;62267;50.112;8.704;2023-12-22T06:49:12;5.83;;;2.93;;
1262;SDS011;62267;50.112;8.704;2023-12-22T06:51:39;5.27;;;2.70;;
1262;SDS011;62267;50.112;8.704;2023-12-22T06:54:06;6.30;;;2.77;;
1262;SDS011;62267;50.112;8.704;2023-12-22T06:56:36;8.70;;;3.30;;
1262;SDS011;62267;50.112;8.704;2023-12-22T06:59:04;5.53;;;3.23;;
1262;SDS011;62267;50.112;8.704;2023-12-22T07:01:32;4.83;;;2.60;;
1262;SDS011;62267;50.112;8.704;2023-12-22T07:04:00;6.30;;;2.57;;
1262;SDS011;62267;50.112;8.704;2023-12-22T07:06:31;4.90;;;3.13;;
1262;SDS011;62267;50.112;8.704;2023-12-22T07:11:27;5.63;;;3.37;;
1262;SDS011;62267;50.112;8.704;2023-12-22T07:14:03;5.30;;;3.20;;
1262;SDS011;62267;50.112;8.704;2023-12-22T07:16:32;3.70;;;2.70;;
1262;SDS011;62267;50.112;8.704;2023-12-22T07:19:00;9.67;;;4.00;;
1262;SDS011;62267;50.112;8.704;2023-12-22T07:21:27;6.60;;;3.43;;
1262;SDS011;62267;50.112;8.704;2023-12-22T07:23:55;7.90;;;3.20;;
1262;SDS011;62267;50.112;8.704;2023-12-22T07:26:22;4.40;;;2.70;;
1262;SDS011;62267;50.112;8.704;2023-12-22T07:28:51;7.00;;;3.47;;
1262;SDS011;62267;50.112;8.704;2023-12-22T07:31:19;7.27;;;2.73;;
1262;SDS011;62267;50.112;8.704;2023-12-22T07:33:47;3.83;;;2.77;;
1262;SDS011;62267;50.112;8.704;2023-12-22T07:36:14;10.77;;;3.07;;
1262;SDS011;62267;50.112;8.704;2023-12-22T07:38:41;9.70;;;3.10;;
1262;SDS011;62267;50.112;8.704;2023-12-22T07:41:09;9.90;;;2.80;;
1262;SDS011;62267;50.112;8.704;2023-12-22T07:43:38;7.67;;;2.63;;
1262;SDS011;62267;50.112;8.704;2023-12-22T07:46:05;5.53;;;2.90;;
1262;SDS011;62267;50.112;8.704;2023-12-22T07:48:37;5.70;;;3.40;;
1262;SDS011;62267;50.112;8.704;2023-12-22T07:51:05;7.90;;;3.77;;
1262;SDS011;62267;50.112;8.704;2023-12-22T07:53:32;6.40;;;3.37;;
1262;SDS011;62267;50.112;8.704;2023-12-22T07:55:59;5.57;;;3.23;;
1262;SDS011;62267;50.112;8.704;2023-12-22T07:58:27;17.60;;;7.37;;
1262;SDS011;62267;50.112;8.704;2023-12-22T08:00:54;7.37;;;3.43;;
1262;SDS011;62267;50.112;8.704;2023-12-22T08:03:23;5.33;;;3.20;;
1262;SDS011;62267;50.112;8.704;2023-12-22T08:05:50;4.80;;;3.47;;
1262;SDS011;62267;50.112;8.704;2023-12-22T08:08:18;3.53;;;3.10;;
1262;SDS011;62267;50.112;8.704;2023-12-22T08:10:45;5.27;;;3.10;;
1262;SDS011;62267;50.112;8.704;2023-12-22T08:13:12;10.90;;;4.60;;
1262;SDS011;62267;50.112;8.704;2023-12-22T08:15:40;8.23;;;3.27;;
1262;SDS011;62267;50.112;8.704;2023-12-22T08:18:07;6.03;;;2.90;;
1262;SDS011;62267;50.112;8.704;2023-12-22T08:20:34;4.80;;;2.90;;
1262;SDS011;62267;50.112;8.704;2023-12-22T08:23:07;5.83;;;2.93;;
1262;SDS011;62267;50.112;8.704;2023-12-22T08:25:38;8.37;;;3.07;;
1262;SDS011;62267;50.112;8.704;2023-12-22T08:28:08;4.50;;;2.87;;
1262;SDS011;62267;50.112;8.704;2023-12-22T08:30:35;5.77;;;3.53;;
1262;SDS011;62267;50.112;8.704;2023-12-22T08:33:03;10.80;;;3.07;;
1262;SDS011;62267;50.112;8.704;2023-12-22T08:35:30;10.03;;;3.13;;
1262;SDS011;62267;50.112;8.704;2023-12-22T08:37:58;3.73;;;2.80;;
1262;SDS011;62267;50.112;8.704;2023-12-22T08:40:25;4.83;;;3.50;;
1262;SDS011;62267;50.112;8.704;2023-12-22T08:42:55;9.17;;;3.70;;
1262;SDS011;62267;50.112;8.704;2023-12-22T08:45:27;4.80;;;3.50;;
1262;SDS011;62267;50.112;8.704;2023-12-22T08:47:57;5.37;;;3.30;;
1262;SDS011;62267;50.112;8.704;2023-12-22T08:50:24;4.20;;;2.87;;
1262;SDS011;62267;50.112;8.704;2023-12-22T08:52:52;4.47;;;2.83;;
1262;SDS011;62267;50.112;8.704;2023-12-22T08:55:19;2.70;;;2.50;;
1262;SDS011;62267;50.112;8.704;2023-12-22T08:57:46;3.13;;;2.50;;
1262;SDS011;62267;50.112;8.704;2023-12-22T09:00:25;6.87;;;2.50;;
1262;SDS011;62267;50.112;8.704;2023-12-22T09:02:54;2.60;;;2.30;;
1262;SDS011;62267;50.112;8.704;2023-12-22T09:05:21;5.83;;;2.70;;
1262;SDS011;62267;50.112;8.704;2023-12-22T09:07:49;3.07;;;2.20;;
1262;SDS011;62267;50.112;8.704;2023-12-22T09:10:17;2.57;;;2.13;;
1262;SDS011;62267;50.112;8.704;2023-12-22T09:12:44;2.50;;;2.30;;
1262;SDS011;62267;50.112;8.704;2023-12-22T09:15:11;2.90;;;1.90;;
1262;SDS011;62267;50.112;8.704;2023-12-22T09:17:39;1.77;;;1.67;;
1262;SDS011;62267;50.112;8.704;2023-12-22T09:20:10;1.80;;;1.70;;
1262;SDS011;62267;50.112;8.704;2023-12-22T09:22:37;4.40;;;1.87;;
1262;SDS011;62267;50.112;8.704;2023-12-22T09:25:05;1.73;;;1.63;;
1262;SDS011;62267;50.112;8.704;2023-12-22T09:27:34;2.00;;;1.87;;
1262;SDS011;62267;50.112;8.704;2023-12-22T09:30:02;1.93;;;1.83;;
1262;SDS011;62267;50.112;8.704;2023-12-22T09:32:32;2.50;;;1.77;;
1262;SDS011;62267;50.112;8.704;2023-12-22T09:35:00;8.23;;;2.17;;
1262;SDS011;62267;50.112;8.704;2023-12-22T09:37:27;1.93;;;1.83;;
1262;SDS011;62267;50.112;8.704;2023-12-22T09:39:55;3.47;;;1.90;;
1262;SDS011;62267;50.112;8.704;2023-12-22T09:42:22;2.73;;;1.87;;
1262;SDS011;62267;50.112;8.704;2023-12-22T09:44:52;2.23;;;1.97;;
1262;SDS011;62267;50.112;8.704;2023-12-22T09:47:20;4.17;;;1.90;;
1262;SDS011;62267;50.112;8.704;2023-12-22T09:49:48;3.27;;;1.90;;
1262;SDS011;62267;50.112;8.704;2023-12-22T09:52:15;2.03;;;1.93;;
1262;SDS011;62267;50.112;8.704;2023-12-22T09:54:43;2.37;;;1.97;;
1262;SDS011;62267;50.112;8.704;2023-12-22T09:57:11;3.80;;;1.97;;
1262;SDS011;62267;50.112;8.704;2023-12-22T09:59:51;4.63;;;2.27;;
1262;SDS011;62267;50.112;8.704;2023-12-22T10:02:19;3.50;;;2.30;;
1262;SDS011;62267;50.112;8.704;2023-12-22T10:04:46;3.50;;;2.43;;
1262;SDS011;62267;50.112;8.704;2023-12-22T10:07:14;5.40;;;2.30;;
1262;SDS011;62267;50.112;8.704;2023-12-22T10:09:43;6.03;;;2.80;;
1262;SDS011;62267;50.112;8.704;2023-12-22T10:12:13;2.67;;;2.47;;
1262;SDS011;62267;50.112;8.704;2023-12-22T10:14:41;3.47;;;2.97;;
1262;SDS011;62267;50.112;8.704;2023-12-22T10:17:08;2.93;;;2.73;;
1262;SDS011;62267;50.112;8.704;2023-12-22T10:19:37;3.43;;;3.13;;
1262;SDS011;62267;50.112;8.704;2023-12-22T10:22:06;4.70;;;3.33;;
1262;SDS011;62267;50.112;8.704;2023-12-22T10:24:43;7.30;;;2.97;;
1262;SDS011;62267;50.112;8.704;2023-12-22T10:27:11;4.23;;;2.57;;
1262;SDS011;62267;50.112;8.704;2023-12-22T10:29:38;7.47;;;3.53;;
1262;SDS011;62267;50.112;8.704;2023-12-22T10:32:07;5.60;;;3.33;;
1262;SDS011;62267;50.112;8.704;2023-12-22T10:34:38;4.03;;;3.63;;
1262;SDS011;62267;50.112;8.704;2023-12-22T10:37:05;5.00;;;3.73;;
1262;SDS011;62267;50.112;8.704;2023-12-22T10:39:33;7.03;;;3.07;;
1262;SDS011;62267;50.112;8.704;2023-12-22T10:42:02;9.43;;;3.70;;
1262;SDS011;62267;50.112;8.704;2023-12-22T10:44:30;10.03;;;3.17;;
1262;SDS011;62267;50.112;8.704;2023-12-22T10:46:59;6.77;;;3.33;;
1262;SDS011;62267;50.112;8.704;2023-12-22T10:49:27;8.40;;;4.90;;
1262;SDS011;62267;50.112;8.704;2023-12-22T10:51:54;4.37;;;3.50;;
1262;SDS011;62267;50.112;8.704;2023-12-22T10:54:23;7.90;;;3.77;;
1262;SDS011;62267;50.112;8.704;2023-12-22T10:56:51;6.00;;;3.80;;
1262;SDS011;62267;50.112;8.704;2023-12-22T10:59:18;9.77;;;4.30;;
1262;SDS011;62267;50.112;8.704;2023-12-22T11:01:49;9.03;;;4.80;;
1262;SDS011;62267;50.112;8.704;2023-12-22T11:04:20;7.40;;;3.77;;
1262;SDS011;62267;50.112;8.704;2023-12-22T11:06:49;11.53;;;4.50;;
1262;SDS011;62267;50.112;8.704;2023-12-22T11:09:17;14.67;;;5.67;;
1262;SDS011;62267;50.112;8.704;2023-12-22T11:11:45;11.63;;;4.03;;
1262;SDS011;62267;50.112;8.704;2023-12-22T11:14:15;7.83;;;3.93;;
1262;SDS011;62267;50.112;8.704;2023-12-22T11:16:43;9.87;;;5.33;;
1262;SDS011;62267;50.112;8.704;2023-12-22T11:19:14;13.17;;;5.00;;
1262;SDS011;62267;50.112;8.704;2023-12-22T11:21:44;12.57;;;5.23;;
1262;SDS011;62267;50.112;8.704;2023-12-22T11:24:12;23.03;;;5.10;;
1262;SDS011;62267;50.112;8.704;2023-12-22T11:26:43;10.50;;;5.13;;
1262;SDS011;62267;50.112;8.704;2023-12-22T11:29:12;9.20;;;5.30;;
1262;SDS011;62267;50.112;8.704;2023-12-22T11:31:41;10.17;;;4.97;;
1262;SDS011;62267;50.112;8.704;2023-12-22T11:34:12;9.73;;;3.90;;
1262;SDS011;62267;50.112;8.704;2023-12-22T11:36:45;14.50;;;5.33;;
1262;SDS011;62267;50.112;8.704;2023-12-22T11:39:12;9.70;;;5.00;;
1262;SDS011;62267;50.112;8.704;2023-12-22T11:41:40;10.00;;;4.00;;
1262;SDS011;62267;50.112;8.704;2023-12-22T11:44:08;4.67;;;3.80;;
1262;SDS011;62267;50.112;8.704;2023-12-22T11:46:35;13.03;;;4.60;;
1262;SDS011;62267;50.112;8.704;2023-12-22T11:49:03;6.97;;;4.03;;
1262;SDS011;62267;50.112;8.704;2023-12-22T11:51:32;11.03;;;4.00;;
1262;SDS011;62267;50.112;8.704;2023-12-22T11:54:01;5.23;;;3.63;;
1262;SDS011;62267;50.112;8.704;2023-12-22T11:56:28;12.40;;;4.70;;
1262;SDS011;62267;50.112;8.704;2023-12-22T11:58:57;7.30;;;3.57;;
1262;SDS011;62267;50.112;8.704;2023-12-22T12:01:26;5.33;;;3.50;;
1262;SDS011;62267;50.112;8.704;2023-12-22T12:04:00;7.90;;;3.23;;
1262;SDS011;62267;50.112;8.704;2023-12-22T12:06:32;6.90;;;4.00;;
1262;SDS011;62267;50.112;8.704;2023-12-22T12:09:00;12.07;;;3.40;;
1262;SDS011;62267;50.112;8.704;2023-12-22T12:12:08;7.47;;;4.33;;
1262;SDS011;62267;50.112;8.704;2023-12-22T12:14:26;7.23;;;3.67;;
1262;SDS011;62267;50.112;8.704;2023-12-22T12:17:08;7.53;;;3.53;;
1262;SDS011;62267;50.112;8.704;2023-12-22T12:19:39;8.13;;;3.60;;
1262;SDS011;62267;50.112;8.704;2023-12-22T12:22:12;8.90;;;3.60;;
1262;SDS011;62267;50.112;8.704;2023-12-22T12:24:40;10.13;;;3.93;;
1262;SDS011;62267;50.112;8.704;2023-12-22T12:27:08;4.60;;;3.57;;
1262;SDS011;62267;50.112;8.704;2023-12-22T12:29:35;5.00;;;3.73;;
1262;SDS011;62267;50.112;8.704;2023-12-22T12:32:05;6.40;;;3.03;;
1262;SDS011;62267;50.112;8.704;2023-12-22T12:34:32;7.37;;;3.90;;
1262;SDS011;62267;50.112;8.704;2023-12-22T12:37:00;4.00;;;2.90;;
1262;SDS011;62267;50.112;8.704;2023-12-22T12:39:31;3.97;;;3.10;;
1262;SDS011;62267;50.112;8.704;2023-12-22T12:42:01;3.63;;;2.30;;
1262;SDS011;62267;50.112;8.704;2023-12-22T12:44:30;2.63;;;2.20;;
1262;SDS011;62267;50.112;8.704;2023-12-22T12:46:59;2.23;;;2.03;;
1262;SDS011;62267;50.112;8.704;2023-12-22T12:49:27;4.40;;;2.30;;
1262;SDS011;62267;50.112;8.704;2023-12-22T12:51:57;2.60;;;2.10;;
1262;SDS011;62267;50.112;8.704;2023-12-22T12:54:25;9.77;;;3.10;;
1262;SDS011;62267;50.112;8.704;2023-12-22T12:56:54;3.90;;;2.10;;
1262;SDS011;62267;50.112;8.704;2023-12-22T12:59:22;4.30;;;2.80;;
1262;SDS011;62267;50.112;8.704;2023-12-22T13:01:53;3.60;;;2.83;;
1262;SDS011;62267;50.112;8.704;2023-12-22T13:04:21;9.07;;;3.27;;
1262;SDS011;62267;50.112;8.704;2023-12-22T13:06:49;3.87;;;2.50;;
1262;SDS011;62267;50.112;8.704;2023-12-22T13:09:17;4.80;;;2.40;;
1262;SDS011;62267;50.112;8.704;2023-12-22T13:11:44;5.40;;;2.73;;
1262;SDS011;62267;50.112;8.704;2023-12-22T13:14:22;3.80;;;2.50;;
1262;SDS011;62267;50.112;8.704;2023-12-22T13:16:52;3.27;;;2.97;;
1262;SDS011;62267;50.112;8.704;2023-12-22T13:19:23;9.93;;;3.67;;
1262;SDS011;62267;50.112;8.704;2023-12-22T13:21:52;6.40;;;2.90;;
1262;SDS011;62267;50.112;8.704;2023-12-22T13:24:20;8.03;;;2.80;;
1262;SDS011;62267;50.112;8.704;2023-12-22T13:26:57;4.57;;;2.90;;
1262;SDS011;62267;50.112;8.704;2023-12-22T13:29:26;6.23;;;3.20;;
1262;SDS011;62267;50.112;8.704;2023-12-22T13:31:54;3.93;;;2.70;;
1262;SDS011;62267;50.112;8.704;2023-12-22T13:34:23;3.20;;;2.60;;
1262;SDS011;62267;50.112;8.704;2023-12-22T13:36:51;4.13;;;2.67;;
1262;SDS011;62267;50.112;8.704;2023-12-22T13:39:19;7.53;;;2.90;;
1262;SDS011;62267;50.112;8.704;2023-12-22T13:41:46;4.93;;;2.70;;
1262;SDS011;62267;50.112;8.704;2023-12-22T13:44:14;2.40;;;2.20;;
1262;SDS011;62267;50.112;8.704;2023-12-22T13:46:42;3.40;;;2.70;;
1262;SDS011;62267;50.112;8.704;2023-12-22T13:49:09;3.57;;;2.27;;
1262;SDS011;62267;50.112;8.704;2023-12-22T13:51:44;4.70;;;3.00;;
1262;SDS011;62267;50.112;8.704;2023-12-22T13:54:11;4.37;;;3.77;;
1262;SDS011;62267;50.112;8.704;2023-12-22T13:56:39;2.83;;;2.43;;
1262;SDS011;62267;50.112;8.704;2023-12-22T13:59:08;2.47;;;2.10;;
1262;SDS011;62267;50.112;8.704;2023-12-22T14:01:35;2.73;;;2.27;;
1262;SDS011;62267;50.112;8.704;2023-12-22T14:04:02;3.00;;;2.23;;
1262;SDS011;62267;50.112;8.704;2023-12-22T14:06:32;2.83;;;2.40;;
1262;SDS011;62267;50.112;8.704;2023-12-22T14:09:00;3.57;;;2.50;;
1262;SDS011;62267;50.112;8.704;2023-12-22T14:11:27;2.20;;;1.97;;
1262;SDS011;62267;50.112;8.704;2023-12-22T14:13:58;2.00;;;1.80;;
1262;SDS011;62267;50.112;8.704;2023-12-22T14:16:25;5.60;;;2.30;;
1262;SDS011;62267;50.112;8.704;2023-12-22T14:18:53;6.33;;;2.77;;
1262;SDS011;62267;50.112;8.704;2023-12-22T14:21:22;2.77;;;2.10;;
1262;SDS011;62267;50.112;8.704;2023-12-22T14:23:49;3.00;;;2.20;;
1262;SDS011;62267;50.112;8.704;2023-12-22T14:26:17;3.40;;;2.30;;
1262;SDS011;62267;50.112;8.704;2023-12-22T14:28:45;4.80;;;3.93;;
1262;SDS011;62267;50.112;8.704;2023-12-22T14:31:17;2.53;;;2.33;;
1262;SDS011;62267;50.112;8.704;2023-12-22T14:33:44;3.80;;;2.57;;
1262;SDS011;62267;50.112;8.704;2023-12-22T14:36:12;3.50;;;2.50;;
1262;SDS011;62267;50.112;8.704;2023-12-22T14:38:39;9.80;;;3.63;;
1262;SDS011;62267;50.112;8.704;2023-12-22T14:41:06;4.00;;;2.47;;
1262;SDS011;62267;50.112;8.704;2023-12-22T14:43:37;2.47;;;2.27;;
1262;SDS011;62267;50.112;8.704;2023-12-22T14:46:05;4.10;;;2.10;;
1262;SDS011;62267;50.112;8.704;2023-12-22T14:48:33;2.60;;;2.40;;
1262;SDS011;62267;50.112;8.704;2023-12-22T14:51:02;2.17;;;2.07;;
1262;SDS011;62267;50.112;8.704;2023-12-22T14:53:29;3.37;;;2.53;;
1262;SDS011;62267;50.112;8.704;2023-12-22T14:55:56;4.13;;;2.83;;
1262;SDS011;62267;50.112;8.704;2023-12-22T14:58:25;3.43;;;2.83;;
1262;SDS011;62267;50.112;8.704;2023-12-22T15:00:52;3.20;;;2.67;;
1262;SDS011;62267;50.112;8.704;2023-12-22T15:03:22;2.63;;;2.23;;
1262;SDS011;62267;50.112;8.704;2023-12-22T15:05:49;4.77;;;2.13;;
1262;SDS011;62267;50.112;8.704;2023-12-22T15:08:18;2.40;;;2.20;;
1262;SDS011;62267;50.112;8.704;2023-12-22T15:10:45;3.03;;;2.77;;